Time;durP1;ratioP1;P1;durP2;ratioP2;P2;SDS_P1;SDS_P2;PMS_P1;PMS_P2;Temp;Humidity;BMP_temperature;BMP_pressure;BME280_temperature;BME280_humidity;BME280_pressure;Samples;Min_cycle;Max_cycle;Signal;HPM_P1;HPM_P2
2022/06/01 00:04:24;;;;;;;6.80;6.13;;;10.00;99.90;;;;;;10171690;29;20274;-80
2022/06/01 00:09:26;;;;;;;6.93;6.23;;;10.00;99.90;;;;;;10172379;29;20680;-81
2022/06/01 00:14:29;;;;;;;7.63;6.93;;;10.10;99.90;;;;;;10171953;29;20714;-81
2022/06/01 00:19:31;;;;;;;6.37;5.87;;;10.10;99.90;;;;;;10170643;29;20313;-80
2022/06/01 00:24:37;;;;;;;8.77;7.93;;;10.00;99.90;;;;;;10170345;29;20306;-81
2022/06/01 00:29:39;;;;;;;8.57;7.77;;;10.00;99.90;;;;;;10171355;29;20230;-81
2022/06/01 00:34:43;;;;;;;7.27;6.50;;;10.10;99.90;;;;;;10170487;29;20245;-81
2022/06/01 00:39:45;;;;;;;8.33;7.53;;;10.10;99.90;;;;;;10169995;29;20239;-80
2022/06/01 00:44:48;;;;;;;8.33;7.47;;;10.10;99.90;;;;;;10169747;29;20318;-80
2022/06/01 00:50:17;;;;;;;7.03;6.43;;;10.10;99.90;;;;;;10169823;29;20242;-80
2022/06/01 00:55:28;;;;;;;10.53;8.33;;;10.10;99.90;;;;;;10139539;29;20357;-81
2022/06/01 01:00:33;;;;;;;8.13;7.33;;;10.20;99.90;;;;;;10170634;29;20266;-81
2022/06/01 01:05:39;;;;;;;9.33;8.03;;;10.30;99.90;;;;;;10169995;29;20735;-81
2022/06/01 01:10:41;;;;;;;8.57;7.27;;;10.30;99.90;;;;;;10167331;29;20235;-81
2022/06/01 01:15:52;;;;;;;9.50;8.27;;;10.40;99.90;;;;;;10169442;29;20635;-81
2022/06/01 01:21:24;;;;;;;9.17;8.27;;;10.40;99.90;;;;;;10169558;29;20270;-81
2022/06/01 01:26:28;;;;;;;8.13;7.37;;;10.40;99.90;;;;;;10169898;29;20694;-81
2022/06/01 01:31:31;;;;;;;8.13;7.20;;;10.30;99.90;;;;;;10167459;29;20226;-81
2022/06/01 01:36:44;;;;;;;10.07;7.70;;;10.30;99.90;;;;;;10133193;29;20272;-81
2022/06/01 01:41:52;;;;;;;8.33;7.53;;;10.10;99.90;;;;;;10157091;29;20246;-81
2022/06/01 01:46:56;;;;;;;8.10;7.40;;;10.10;99.90;;;;;;10166998;29;20249;-81
2022/06/01 01:52:11;;;;;;;7.73;7.03;;;10.00;99.90;;;;;;10169008;29;20369;-81
2022/06/01 01:57:32;;;;;;;8.93;8.03;;;9.80;99.90;;;;;;10167039;29;20636;-81
2022/06/01 02:02:45;;;;;;;12.63;7.60;;;9.90;99.90;;;;;;10148338;29;20655;-81
2022/06/01 02:07:57;;;;;;;8.37;7.57;;;9.70;99.90;;;;;;10158779;29;20265;-81
2022/06/01 02:13:00;;;;;;;8.80;8.00;;;9.70;99.90;;;;;;10166818;29;20226;-82
2022/06/01 02:18:10;;;;;;;12.20;10.03;;;9.80;99.90;;;;;;10165991;29;20688;-82
2022/06/01 02:23:14;;;;;;;10.50;9.23;;;9.80;99.90;;;;;;10166584;29;20234;-81
2022/06/01 02:28:17;;;;;;;10.10;9.03;;;9.80;99.90;;;;;;10166528;29;20337;-82
2022/06/01 02:33:24;;;;;;;9.97;8.97;;;9.80;99.90;;;;;;10150466;29;20247;-82
2022/06/01 02:38:38;;;;;;;11.53;10.33;;;10.40;99.90;;;;;;10168041;29;20741;-82
2022/06/01 02:43:50;;;;;;;12.80;11.27;;;10.60;99.90;;;;;;10165142;29;20290;-82
2022/06/01 02:48:52;;;;;;;13.47;12.07;;;10.40;99.90;;;;;;10166707;29;20279;-83
2022/06/01 02:53:55;;;;;;;12.60;11.30;;;10.50;99.90;;;;;;10166630;29;20283;-82
2022/06/01 02:58:57;;;;;;;14.47;12.97;;;10.60;99.90;;;;;;10166126;29;20239;-82
2022/06/01 03:04:00;;;;;;;16.80;13.93;;;10.60;99.90;;;;;;10166986;29;20292;-82
2022/06/01 03:09:02;;;;;;;15.87;13.10;;;10.60;99.90;;;;;;10165677;29;20230;-82
2022/06/01 03:14:05;;;;;;;16.60;13.23;;;10.70;99.90;;;;;;10167658;29;20231;-82
2022/06/01 03:19:08;;;;;;;14.97;12.80;;;10.70;99.90;;;;;;10156105;29;20696;-82
2022/06/01 03:24:10;;;;;;;15.67;13.20;;;10.70;99.90;;;;;;10173617;29;20227;-82
2022/06/01 03:29:13;;;;;;;15.70;13.47;;;10.70;99.90;;;;;;10171755;29;20227;-82
2022/06/01 03:34:17;;;;;;;14.23;12.77;;;10.70;99.90;;;;;;10171841;29;20286;-82
2022/06/01 03:39:19;;;;;;;14.37;12.43;;;10.70;99.90;;;;;;10148461;29;20271;-82
2022/06/01 03:49:44;;;;;;;15.43;13.63;;;10.70;99.90;;;;;;10173253;29;20685;-83
2022/06/01 03:54:46;;;;;;;20.27;14.87;;;10.70;99.90;;;;;;10173267;29;20239;-82
2022/06/01 03:59:49;;;;;;;15.53;13.87;;;10.70;99.90;;;;;;10172990;29;20235;-82
2022/06/01 04:04:51;;;;;;;20.23;14.93;;;10.80;99.90;;;;;;10172972;29;20275;-82
2022/06/01 04:09:54;;;;;;;17.60;13.33;;;10.70;99.90;;;;;;10172400;29;20219;-82
2022/06/01 04:14:57;;;;;;;15.70;13.73;;;10.60;99.90;;;;;;10171482;29;20771;-82
2022/06/01 04:20:00;;;;;;;16.30;12.70;;;10.60;99.90;;;;;;10173908;29;20211;-82
2022/06/01 04:25:02;;;;;;;16.57;14.73;;;10.60;99.90;;;;;;10134656;29;20253;-82
2022/06/01 04:30:07;;;;;;;19.20;15.97;;;10.70;99.90;;;;;;10163478;29;20206;-82
2022/06/01 04:35:10;;;;;;;17.10;14.70;;;10.80;99.90;;;;;;10172347;29;20248;-83
2022/06/01 04:40:16;;;;;;;18.73;14.43;;;11.00;99.90;;;;;;10171859;29;20242;-83
2022/06/01 04:45:19;;;;;;;17.03;15.23;;;11.00;99.90;;;;;;10171999;29;20258;-82
2022/06/01 04:50:22;;;;;;;18.60;15.60;;;11.10;99.90;;;;;;10170108;29;20274;-82
2022/06/01 04:55:25;;;;;;;18.20;15.07;;;11.20;99.90;;;;;;10170364;29;20204;-82
2022/06/01 05:00:27;;;;;;;15.77;14.13;;;11.30;99.90;;;;;;10170570;29;20857;-82
2022/06/01 05:05:31;;;;;;;17.27;14.97;;;11.50;99.90;;;;;;10171331;29;20303;-82
2022/06/01 05:10:34;;;;;;;19.83;14.87;;;11.50;99.90;;;;;;10158934;29;20249;-81
2022/06/01 05:15:47;;;;;;;19.93;15.03;;;11.60;99.90;;;;;;10210029;28;20208;-82
2022/06/01 05:20:50;;;;;;;23.17;15.27;;;11.80;99.90;;;;;;10222258;28;20231;-82
2022/06/01 05:25:54;;;;;;;22.73;17.60;;;12.00;99.90;;;;;;10222449;28;20239;-82
2022/06/01 05:30:58;;;;;;;20.30;18.10;;;12.10;99.90;;;;;;10222311;28;20207;-82
2022/06/01 05:36:00;;;;;;;17.63;15.23;;;12.30;99.90;;;;;;10221573;28;20216;-83
2022/06/01 05:41:03;;;;;;;17.40;15.53;;;12.60;99.90;;;;;;10220127;28;20183;-83
2022/06/01 05:46:06;;;;;;;16.23;13.83;;;12.90;99.90;;;;;;10204850;28;20232;-82
2022/06/01 05:51:08;;;;;;;19.67;16.03;;;13.00;99.90;;;;;;10215903;28;20196;-82
2022/06/01 05:56:11;;;;;;;18.43;15.23;;;13.20;99.90;;;;;;10216693;28;20302;-82
2022/06/01 06:01:16;;;;;;;9.27;8.23;;;13.90;99.90;;;;;;10219958;28;20215;-81
2022/06/01 06:06:20;;;;;;;9.47;8.53;;;16.10;99.90;;;;;;10221503;28;20234;-82
2022/06/01 06:11:26;;;;;;;10.43;9.47;;;16.80;99.90;;;;;;10219718;28;20205;-82
2022/06/01 06:16:34;;;;;;;9.80;8.90;;;16.60;99.90;;;;;;10221466;28;20213;-82
2022/06/01 06:21:38;;;;;;;8.43;7.70;;;16.60;99.90;;;;;;10221595;28;20196;-81
2022/06/01 06:26:42;;;;;;;9.63;8.70;;;17.70;99.90;;;;;;10221820;28;20227;-81
2022/06/01 06:31:45;;;;;;;12.27;10.80;;;18.20;99.90;;;;;;10221029;28;20180;-81
2022/06/01 06:36:49;;;;;;;9.73;8.77;;;18.10;99.90;;;;;;10221725;28;20187;-82
2022/06/01 06:41:52;;;;;;;9.40;8.60;;;18.30;99.90;;;;;;10193428;29;20206;-82
2022/06/01 06:47:03;;;;;;;13.97;10.87;;;18.40;99.90;;;;;;10195050;28;20212;-96
2022/06/01 06:52:29;;;;;;;9.97;8.97;;;18.10;99.90;;;;;;10123456;29;21483;-80
2022/06/01 06:57:32;;;;;;;11.80;8.60;;;18.00;99.90;;;;;;10134719;29;20594;-80
2022/06/01 07:02:35;;;;;;;8.90;7.33;;;18.40;99.90;;;;;;10130683;29;20590;-80
2022/06/01 07:07:38;;;;;;;9.23;7.67;;;18.50;99.90;;;;;;10131929;29;20636;-80
2022/06/01 07:12:40;;;;;;;8.83;7.80;;;18.50;99.90;;;;;;10150142;29;20268;-80
2022/06/01 07:17:43;;;;;;;8.90;6.47;;;18.50;99.90;;;;;;10135371;29;20228;-80
2022/06/01 07:22:45;;;;;;;7.87;7.17;;;18.70;99.90;;;;;;10134084;29;20283;-80
2022/06/01 07:27:49;;;;;;;8.17;6.73;;;18.50;99.90;;;;;;10133889;29;20326;-80
2022/06/01 07:32:52;;;;;;;7.80;7.07;;;18.40;99.90;;;;;;10134352;29;20235;-80
2022/06/01 07:43:18;;;;;;;7.00;6.47;;;18.10;99.90;;;;;;10132791;29;20228;-80
2022/06/01 07:48:21;;;;;;;7.33;6.63;;;18.30;99.90;;;;;;10111556;29;20297;-80
2022/06/01 07:53:43;;;;;;;7.50;6.77;;;18.50;99.90;;;;;;10098843;29;20261;-80
2022/06/01 07:58:46;;;;;;;6.70;6.10;;;18.70;99.90;;;;;;10128823;29;20675;-80
2022/06/01 08:03:48;;;;;;;8.07;7.27;;;18.70;99.90;;;;;;10132846;29;20239;-80
2022/06/01 08:08:51;;;;;;;7.50;6.97;;;19.00;99.90;;;;;;10132296;29;20252;-80
2022/06/01 08:13:53;;;;;;;8.00;7.30;;;19.10;99.90;;;;;;10126065;29;20250;-80
2022/06/01 08:18:56;;;;;;;7.63;6.93;;;18.90;99.90;;;;;;10094609;29;20292;-80
2022/06/01 08:23:59;;;;;;;8.57;7.77;;;18.90;99.90;;;;;;10098524;29;20305;-80
2022/06/01 08:29:02;;;;;;;9.27;8.37;;;18.90;99.90;;;;;;10102981;29;20765;-80
2022/06/01 08:34:05;;;;;;;8.97;8.17;;;18.70;99.90;;;;;;10127062;29;20283;-80
2022/06/01 08:39:08;;;;;;;8.73;8.03;;;18.70;99.90;;;;;;10131113;29;20264;-80
2022/06/01 08:44:23;;;;;;;8.97;8.20;;;18.90;99.90;;;;;;10113036;29;20636;-80
2022/06/01 08:49:29;;;;;;;8.87;8.10;;;19.00;99.90;;;;;;10120223;29;20338;-80
2022/06/01 08:54:32;;;;;;;9.30;8.50;;;18.50;99.90;;;;;;10131848;29;20591;-80
2022/06/01 08:59:52;;;;;;;10.27;9.27;;;17.80;99.90;;;;;;10118087;29;20233;-80
2022/06/01 09:05:18;;;;;;;9.77;8.87;;;18.60;99.90;;;;;;10124644;29;20634;-80
2022/06/01 09:10:31;;;;;;;9.80;9.00;;;18.60;99.90;;;;;;10130975;29;20236;-79
2022/06/01 09:15:45;;;;;;;10.00;9.00;;;18.40;99.90;;;;;;10128799;29;20625;-80
2022/06/01 09:26:23;;;;;;;9.23;8.40;;;18.80;99.90;;;;;;10120609;29;20236;-80
2022/06/01 09:31:36;;;;;;;10.67;8.93;;;18.60;99.90;;;;;;10129225;29;20691;-80
2022/06/01 09:36:49;;;;;;;9.20;8.37;;;18.60;99.90;;;;;;10129102;29;20240;-80
2022/06/01 09:41:52;;;;;;;12.03;10.23;;;19.00;99.90;;;;;;10130097;29;20240;-80
2022/06/01 09:46:58;;;;;;;11.23;10.20;;;19.00;99.90;;;;;;10129840;29;20267;-80
2022/06/01 09:52:08;;;;;;;10.43;9.10;;;19.10;99.90;;;;;;10129317;29;20789;-80
2022/06/01 09:57:38;;;;;;;9.97;9.07;;;18.80;99.90;;;;;;10123235;29;20232;-80
2022/06/01 10:08:28;;;;;;;9.03;7.83;;;18.50;99.90;;;;;;10091624;29;20267;-80
2022/06/01 10:13:48;;;;;;;8.57;7.73;;;18.70;99.90;;;;;;10092592;29;20753;-80
2022/06/01 10:18:53;;;;;;;10.00;9.00;;;18.50;99.90;;;;;;10130075;29;20272;-80
2022/06/01 10:24:07;;;;;;;9.13;8.27;;;18.90;99.90;;;;;;10091295;29;20286;-80
2022/06/01 10:29:15;;;;;;;11.27;10.30;;;18.50;99.90;;;;;;10097244;29;20323;-80
2022/06/01 10:34:23;;;;;;;12.77;11.60;;;19.10;99.90;;;;;;10098195;29;20243;-80
2022/06/01 10:39:43;;;;;;;12.63;11.63;;;19.30;99.90;;;;;;10114223;29;20232;-80
2022/06/01 10:45:12;;;;;;;11.87;10.67;;;19.30;99.90;;;;;;10134953;29;20236;-80
2022/06/01 10:50:19;;;;;;;11.90;10.80;;;19.00;99.90;;;;;;10121244;29;20275;-79
2022/06/01 10:55:30;;;;;;;12.23;11.17;;;19.20;99.90;;;;;;10135344;29;20771;-80
2022/06/01 11:00:45;;;;;;;12.87;11.77;;;19.20;99.60;;;;;;10134747;29;20236;-80
2022/06/01 11:06:12;;;;;;;13.07;11.90;;;19.10;99.40;;;;;;10134193;29;20231;-79
2022/06/01 11:11:41;;;;;;;10.53;9.60;;;19.20;99.50;;;;;;10133481;29;20690;-80
2022/06/01 11:17:01;;;;;;;11.73;10.73;;;19.00;98.50;;;;;;10133387;29;20280;-80
2022/06/01 11:22:37;;;;;;;12.87;11.67;;;18.80;99.90;;;;;;10135077;29;20762;-80
2022/06/01 11:28:02;;;;;;;7.33;6.73;;;19.10;99.30;;;;;;10117287;29;20256;-80
2022/06/01 11:33:32;;;;;;;8.97;8.07;;;19.10;98.60;;;;;;10114962;29;20308;-80
2022/06/01 11:38:46;;;;;;;8.87;8.13;;;19.00;99.20;;;;;;10117940;29;20304;-80
2022/06/01 11:43:53;;;;;;;10.43;9.53;;;19.20;98.90;;;;;;10133991;29;20275;-80
2022/06/01 11:48:58;;;;;;;8.17;7.40;;;19.20;98.50;;;;;;10123470;29;20311;-80
2022/06/01 11:54:06;;;;;;;12.53;11.43;;;19.30;97.30;;;;;;10094843;29;20607;-80
2022/06/01 11:59:32;;;;;;;14.53;13.00;;;19.40;97.30;;;;;;10112882;29;20232;-80
2022/06/01 12:05:08;;;;;;;8.57;5.97;;;19.30;95.30;;;;;;10135450;29;20271;-80
2022/06/01 12:10:29;;;;;;;12.53;10.77;;;19.40;96.10;;;;;;10134035;29;20321;-80
2022/06/01 12:15:43;;;;;;;12.77;11.67;;;19.30;95.70;;;;;;10134134;29;20252;-80
2022/06/01 12:20:53;;;;;;;12.13;11.03;;;19.40;95.80;;;;;;10132450;29;20291;-80
2022/06/01 12:31:17;;;;;;;13.23;12.03;;;20.10;96.30;;;;;;10131603;29;20757;-80
2022/06/01 12:36:20;;;;;;;13.70;12.50;;;20.10;95.70;;;;;;10132630;29;20200;-80
2022/06/01 12:41:27;;;;;;;14.23;12.83;;;20.00;95.20;;;;;;10127702;29;20237;-80
2022/06/01 12:46:45;;;;;;;5.30;4.80;;;19.60;95.30;;;;;;10101118;29;20252;-80
2022/06/01 12:51:49;;;;;;;3.33;3.13;;;19.60;94.30;;;;;;10092540;29;20265;-80
2022/06/01 12:56:52;;;;;;;14.60;13.23;;;19.60;90.70;;;;;;10128882;29;20632;-80
2022/06/01 13:02:00;;;;;;;9.13;8.23;;;19.50;95.20;;;;;;10132846;29;20236;-80
2022/06/01 13:07:15;;;;;;;14.80;13.40;;;19.40;93.80;;;;;;10116851;29;20231;-80
2022/06/01 13:12:18;;;;;;;18.10;10.77;;;19.10;95.60;;;;;;10119644;29;20265;-79
2022/06/01 13:17:25;;;;;;;5.47;2.70;;;18.30;96.70;;;;;;10092483;29;20235;-79
2022/06/01 13:22:36;;;;;;;6.63;2.73;;;15.20;99.90;;;;;;10106420;29;20277;-79
2022/06/01 13:27:40;;;;;;;7.47;3.33;;;13.80;99.90;;;;;;10130936;29;20295;-79
2022/06/01 13:32:47;;;;;;;4.83;3.30;;;13.70;99.90;;;;;;10108502;29;20236;-80
2022/06/01 13:37:52;;;;;;;5.43;3.43;;;13.50;99.90;;;;;;10118389;29;20262;-80
2022/06/01 13:43:15;;;;;;;12.63;11.43;;;14.10;99.90;;;;;;10128661;29;20248;-80
2022/06/01 13:48:33;;;;;;;2.90;2.60;;;14.90;99.90;;;;;;10085711;29;20264;-80
2022/06/01 13:53:45;;;;;;;3.03;2.47;;;15.40;99.90;;;;;;10056359;29;20635;-80
2022/06/01 13:59:03;;;;;;;6.47;2.63;;;16.00;99.90;;;;;;10051039;29;20718;-80
2022/06/01 14:04:34;;;;;;;4.60;4.20;;;16.30;99.90;;;;;;10051644;29;20241;-80
2022/06/01 14:09:54;;;;;;;13.40;12.10;;;16.50;99.90;;;;;;10046921;29;20326;-80
2022/06/01 14:14:57;;;;;;;12.40;6.57;;;17.30;99.90;;;;;;10051530;29;20238;-80
2022/06/01 14:20:00;;;;;;;10.20;7.57;;;17.60;99.90;;;;;;10051027;29;20237;-80
2022/06/01 14:30:24;;;;;;;4.47;3.47;;;18.20;99.90;;;;;;10053245;29;20245;-80
2022/06/01 14:35:31;;;;;;;7.00;3.00;;;18.50;99.90;;;;;;10052134;29;20237;-80
2022/06/01 14:40:37;;;;;;;3.30;2.90;;;18.80;99.90;;;;;;10050656;29;20273;-80
2022/06/01 14:45:40;;;;;;;13.83;12.53;;;18.70;99.90;;;;;;10050987;29;20240;-80
2022/06/01 14:50:42;;;;;;;4.10;3.70;;;19.00;99.90;;;;;;10035452;29;20298;-80
2022/06/01 14:55:45;;;;;;;9.53;8.00;;;19.00;99.90;;;;;;10051820;29;20233;-79
2022/06/01 15:00:49;;;;;;;9.93;8.27;;;19.60;99.90;;;;;;10060292;29;20237;-79
2022/06/01 15:05:51;;;;;;;9.90;9.00;;;19.80;99.90;;;;;;10082577;29;20232;-79
2022/06/01 15:10:54;;;;;;;5.07;4.00;;;20.40;99.90;;;;;;10083603;29;20260;-82
2022/06/01 15:15:57;;;;;;;2.60;2.40;;;20.00;99.60;;;;;;10085598;29;20620;-79
2022/06/01 15:20:59;;;;;;;2.17;1.97;;;19.50;98.80;;;;;;10090850;29;20317;-79
2022/06/01 15:26:03;;;;;;;12.00;10.83;;;19.30;99.00;;;;;;10067904;29;20246;-78
2022/06/01 15:42:11;;;;;;;2.20;2.00;;;19.90;97.80;;;;;;10061128;29;20205;-79
2022/06/01 15:47:18;;;;;;;2.30;2.10;;;19.40;98.10;;;;;;10070809;29;20288;-79
2022/06/01 15:52:24;;;;;;;7.07;5.50;;;19.70;99.90;;;;;;10090310;29;20332;-79
2022/06/01 15:57:27;;;;;;;3.42;3.00;;;19.90;99.90;;;;;;10090501;29;20248;-78
2022/06/01 16:02:31;;;;;;;6.77;6.17;;;19.70;98.20;;;;;;10090862;29;20274;-77
2022/06/01 16:07:34;;;;;;;2.57;2.37;;;19.80;99.90;;;;;;10069094;29;20703;-78
2022/06/01 16:12:36;;;;;;;7.53;4.73;;;19.90;96.10;;;;;;10092665;29;20300;-78
2022/06/01 16:17:43;;;;;;;8.27;7.38;;;19.80;99.90;;;;;;10063016;29;20242;-78
2022/06/01 16:22:46;;;;;;;8.73;7.97;;;20.10;99.90;;;;;;10060526;29;20240;-78
2022/06/01 16:27:50;;;;;;;9.80;8.25;;;20.50;99.90;;;;;;10073049;29;21000;-78
2022/06/01 16:32:53;;;;;;;2.57;2.33;;;20.60;99.90;;;;;;10078176;29;20288;-78
2022/06/01 16:37:56;;;;;;;3.57;2.77;;;20.30;98.80;;;;;;10068475;29;20249;-78
2022/06/01 16:43:00;;;;;;;8.53;7.77;;;19.20;99.90;;;;;;10091688;29;20683;-78
2022/06/01 16:48:05;;;;;;;2.13;1.50;;;19.20;99.90;;;;;;10079762;29;20268;-78
2022/06/01 16:53:08;;;;;;;4.50;3.90;;;19.00;98.10;;;;;;10091681;29;20245;-79
2022/06/01 16:58:16;;;;;;;4.63;4.30;;;19.70;95.10;;;;;;10091785;29;20303;-79
2022/06/01 17:03:18;;;;;;;4.70;4.30;;;20.30;99.90;;;;;;10087671;29;20339;-78
2022/06/01 17:08:22;;;;;;;9.53;8.63;;;20.20;99.90;;;;;;10091722;29;20269;-78
2022/06/01 17:13:26;;;;;;;2.37;2.17;;;20.10;99.90;;;;;;10092387;29;20277;-78
2022/06/01 17:18:28;;;;;;;2.70;2.40;;;18.90;95.40;;;;;;10091343;29;20244;-79
2022/06/01 17:23:31;;;;;;;3.93;2.30;;;17.90;99.90;;;;;;10091670;29;20602;-79
2022/06/01 17:28:37;;;;;;;4.37;2.97;;;17.50;99.90;;;;;;10092390;29;20320;-79
2022/06/01 17:33:40;;;;;;;2.13;1.63;;;16.90;99.90;;;;;;10060767;29;20241;-79
2022/06/01 17:38:43;;;;;;;5.67;1.80;;;16.00;99.90;;;;;;10051275;29;20317;-78
2022/06/01 17:43:46;;;;;;;1.80;1.67;;;15.70;99.90;;;;;;10091130;29;20226;-78
2022/06/01 17:48:48;;;;;;;2.00;1.50;;;15.40;99.90;;;;;;10066561;29;20273;-80
2022/06/01 17:53:51;;;;;;;1.77;1.60;;;15.20;99.90;;;;;;10082144;29;20233;-79
2022/06/01 17:58:55;;;;;;;1.67;1.30;;;15.30;99.90;;;;;;10079032;29;20312;-78
2022/06/01 18:03:58;;;;;;;1.77;1.67;;;15.10;99.90;;;;;;10066659;29;20682;-78
2022/06/01 18:09:02;;;;;;;6.87;1.40;;;14.80;99.90;;;;;;10074096;29;20266;-77
2022/06/01 18:14:05;;;;;;;3.63;1.30;;;14.60;99.90;;;;;;10078553;29;20629;-77
2022/06/01 18:19:22;;;;;;;4.10;1.43;;;14.40;99.90;;;;;;10080204;29;20244;-77
2022/06/01 18:24:26;;;;;;;1.43;1.33;;;14.10;99.90;;;;;;10090885;29;20265;-78
2022/06/01 18:29:29;;;;;;;1.77;1.60;;;14.10;99.90;;;;;;10086281;29;20249;-78
2022/06/01 18:34:31;;;;;;;4.03;1.53;;;13.80;99.90;;;;;;9743535;29;9999884;-77
2022/06/01 18:39:34;;;;;;;3.47;1.30;;;13.80;99.90;;;;;;10084770;29;20713;-78
2022/06/01 18:44:36;;;;;;;2.30;1.17;;;13.50;99.90;;;;;;10058601;29;20269;-79
2022/06/01 18:49:40;;;;;;;1.20;1.07;;;13.30;99.90;;;;;;10079684;29;20328;-78
2022/06/01 18:54:44;;;;;;;1.50;1.40;;;12.90;99.90;;;;;;10093111;29;20241;-78
2022/06/01 19:05:09;;;;;;;2.07;1.83;;;12.20;99.90;;;;;;10093751;29;20301;-79
2022/06/01 19:10:13;;;;;;;2.10;1.90;;;12.10;99.90;;;;;;10078153;29;20304;-79
2022/06/01 19:15:15;;;;;;;2.17;1.97;;;11.70;99.90;;;;;;10083516;29;20224;-79
2022/06/01 19:20:18;;;;;;;3.80;2.20;;;11.50;99.90;;;;;;10072923;29;20248;-81
2022/06/01 19:25:21;;;;;;;3.80;2.03;;;11.20;99.90;;;;;;10068041;29;20237;-79
2022/06/01 19:30:25;;;;;;;3.17;2.30;;;11.00;99.90;;;;;;10083226;29;20295;-79
2022/06/01 19:35:28;;;;;;;10.50;2.60;;;10.80;99.90;;;;;;10088155;29;20662;-79
2022/06/01 19:46:03;;;;;;;4.63;2.97;;;10.60;99.90;;;;;;10047420;29;20677;-79
2022/06/01 19:51:06;;;;;;;6.07;3.27;;;10.60;99.90;;;;;;10045826;29;20730;-79
2022/06/01 19:56:08;;;;;;;4.00;2.80;;;10.50;99.90;;;;;;10031838;29;20245;-78
2022/06/01 20:01:11;;;;;;;3.30;3.00;;;10.60;99.90;;;;;;10035301;29;20606;-78
2022/06/01 20:06:14;;;;;;;5.83;3.27;;;10.60;99.90;;;;;;10050308;29;20317;-78
2022/06/01 20:16:38;;;;;;;4.73;3.70;;;10.50;99.90;;;;;;10025046;29;20293;-78
2022/06/01 20:21:41;;;;;;;7.70;3.87;;;10.50;99.90;;;;;;10074992;29;20308;-78
2022/06/01 20:26:43;;;;;;;5.33;4.50;;;10.50;99.90;;;;;;10091253;29;20231;-78
2022/06/01 20:31:46;;;;;;;5.17;4.67;;;10.50;99.90;;;;;;10058133;29;20248;-78
2022/06/01 20:36:49;;;;;;;5.37;4.80;;;10.50;99.90;;;;;;10092145;29;20367;-78
2022/06/01 20:41:51;;;;;;;6.47;4.93;;;10.60;99.90;;;;;;10083564;29;20779;-78
2022/06/01 20:46:54;;;;;;;5.37;4.70;;;10.80;99.90;;;;;;10090112;29;20685;-78
2022/06/01 20:51:57;;;;;;;5.70;4.63;;;10.80;99.90;;;;;;10091292;29;20262;-78
2022/06/01 20:56:59;;;;;;;5.97;4.97;;;10.80;99.90;;;;;;10088824;29;20277;-78
2022/06/01 21:02:02;;;;;;;10.23;5.60;;;10.80;99.90;;;;;;10086896;29;20235;-78
2022/06/01 21:07:05;;;;;;;8.33;6.83;;;10.80;99.90;;;;;;10091966;29;20688;-77
2022/06/01 21:12:20;;;;;;;12.07;6.77;;;10.90;99.90;;;;;;10090559;29;20692;-78
2022/06/01 21:17:26;;;;;;;7.30;6.30;;;11.00;99.90;;;;;;10089506;29;20767;-78
2022/06/01 21:22:29;;;;;;;9.80;6.53;;;11.00;99.90;;;;;;10090583;29;20240;-78
2022/06/01 21:27:32;;;;;;;8.33;6.10;;;10.80;99.90;;;;;;10090781;29;20642;-77
2022/06/01 21:32:34;;;;;;;7.00;6.13;;;10.80;99.90;;;;;;10088975;29;20304;-78
2022/06/01 21:37:37;;;;;;;5.20;4.70;;;10.90;99.90;;;;;;10092342;29;20243;-78
2022/06/01 21:42:41;;;;;;;5.57;5.07;;;10.90;99.90;;;;;;10089837;29;20249;-77
2022/06/01 21:47:44;;;;;;;10.60;5.10;;;10.90;99.90;;;;;;10090431;29;20235;-78
2022/06/01 21:52:47;;;;;;;5.07;4.67;;;11.10;99.90;;;;;;10087459;29;20304;-78
2022/06/01 21:57:54;;;;;;;4.97;4.53;;;11.10;99.90;;;;;;10090801;29;20231;-79
2022/06/01 22:02:59;;;;;;;5.10;4.70;;;11.00;99.90;;;;;;10090118;29;20243;-78
2022/06/01 22:08:01;;;;;;;6.93;5.67;;;10.80;99.90;;;;;;10088566;29;20246;-77
2022/06/01 22:13:05;;;;;;;8.27;4.90;;;10.70;99.90;;;;;;10092292;29;20252;-77
2022/06/01 22:18:07;;;;;;;5.93;4.73;;;10.70;99.90;;;;;;10083971;29;20779;-78
2022/06/01 22:23:10;;;;;;;7.67;5.57;;;10.60;99.90;;;;;;9411301;29;10000836;-83
2022/06/01 22:28:12;;;;;;;6.23;5.63;;;10.60;99.90;;;;;;10092225;29;20271;-78
2022/06/01 22:33:15;;;;;;;9.87;6.30;;;10.50;99.90;;;;;;10077260;29;20294;-77
2022/06/01 22:38:18;;;;;;;6.87;5.93;;;10.40;99.90;;;;;;10093907;29;20242;-78
2022/06/01 22:43:20;;;;;;;10.07;5.37;;;10.50;99.90;;;;;;10093737;29;20239;-78
2022/06/01 22:48:26;;;;;;;5.80;5.20;;;10.60;99.90;;;;;;10091371;29;20312;-79
2022/06/01 22:53:34;;;;;;;6.47;5.27;;;10.60;99.90;;;;;;10089552;29;20690;-77
2022/06/01 22:58:38;;;;;;;5.53;5.00;;;10.60;99.90;;;;;;10097860;29;20244;-79
2022/06/01 23:03:41;;;;;;;6.07;5.27;;;10.60;99.90;;;;;;10072478;29;20660;-79
2022/06/01 23:08:43;;;;;;;5.80;5.23;;;10.40;99.90;;;;;;10088555;29;20236;-78
2022/06/01 23:13:46;;;;;;;6.23;5.33;;;10.40;99.90;;;;;;10092185;29;20295;-79
2022/06/01 23:18:49;;;;;;;9.40;6.30;;;10.50;99.90;;;;;;10084894;29;20243;-79
2022/06/01 23:23:51;;;;;;;6.23;5.63;;;10.50;99.90;;;;;;10058852;29;20234;-79
2022/06/01 23:29:24;;;;;;;6.67;5.97;;;10.40;99.90;;;;;;10079935;29;22156;-79
2022/06/01 23:35:05;;;;;;;9.30;5.77;;;10.40;99.90;;;;;;10093170;29;20243;-79
2022/06/01 23:40:26;;;;;;;9.30;6.47;;;10.50;99.90;;;;;;10096283;29;20252;-78
2022/06/01 23:45:51;;;;;;;9.13;7.97;;;10.70;99.90;;;;;;10092942;29;20306;-78
2022/06/01 23:51:03;;;;;;;12.90;9.33;;;10.60;99.90;;;;;;10062174;29;20317;-79
2022/06/01 23:56:18;;;;;;;13.63;9.23;;;10.80;99.90;;;;;;10095524;29;20662;-79
